METAR AND TAF INFORMATION
METAR FOR LGPZ
ADDS - METARS form results

(0708 UTC 18 October 2019)
Data provider http://aviationweather.gov/metar/data/
 
METAR text: LGPZ 180650Z 04005KT 9999 FEW018 20/18 Q1018
Conditions at: LGPZ (PREVEZA/AKTION , GR) observed 0650 UTC 18 October 2019
Temperature: 20.0°C (68°F)
Dewpoint: 18.0°C (64°F) [RH = 88%]
Pressure (altimeter): 30.06 inches Hg (1018.0 mb)
Winds: from the NE (40 degrees) at 6 MPH (5 knots; 2.6 m/s)
Visibility: 6 or more miles (10+ km)
Ceiling: at least 12,000 feet AGL
Clouds: few clouds at 1800 feet AGL
Weather: no significant weather observed at this time

METAR text: LGPZ 180620Z 04005KT 9999 FEW018 20/17 Q1018
Conditions at: LGPZ (PREVEZA/AKTION , GR) observed 0620 UTC 18 October 2019
Temperature: 20.0°C (68°F)
Dewpoint: 17.0°C (63°F) [RH = 83%]
Pressure (altimeter): 30.06 inches Hg (1018.0 mb)
Winds: from the NE (40 degrees) at 6 MPH (5 knots; 2.6 m/s)
Visibility: 6 or more miles (10+ km)
Ceiling: at least 12,000 feet AGL
Clouds: few clouds at 1800 feet AGL
Weather: no significant weather observed at this time

Forecast for: LGPZ (PREVEZA/AKTION , GR)
Text: TAF LGPZ 180500Z 1806/1906 VRB03KT 8000 FEW018 SCT080
Forecast period: 0600 UTC 18 October 2019 to 0600 UTC 19 October 2019
Forecast type: FROM: standard forecast or significant change
Winds: variable direction winds at 3 MPH (3 knots; 1.5 m/s)
Visibility: 5 miles (8 km)
Ceiling: at least 12,000 feet AGL
Clouds: few clouds at 1800 feet AGL
scattered clouds at 8000 feet AGL
Weather: no significant weather forecast for this period
Text: TEMPO 1810/1812 27010KT
Forecast period: 1000 to 1200 UTC 18 October 2019
Forecast type: TEMPORARY: The following changes expected for less than half the time period
Winds: from the W (270 degrees) at 12 MPH (10 knots; 5.1 m/s)
Visibility: missing
Ceiling: unknown
Clouds: missing
Weather: no significant weather forecast for this period

 AIRPORT MAP

 RUNWAY INFORMATION
Runway 07L Runway length 9419 ft Runway width 148 ft
Runway elevation 9 ft Runway displaced threshold 0 ft Runway heading 68
Runway 25R Runway length 9419 ft Runway width 148 ft
Runway elevation 11 ft Runway displaced threshold 492 ft Runway heading 248

 AIRPORT FREQUENCIES
Type A/G Name RDO Frequency 563.7 MHZ
Type APP Name APP Frequency 120.45 MHZ
Type TWR Name TWR Frequency 120.45 MHZ

 AIRPORT NEAR NAVIGATION AIDS
Type NDB Name Preveza Frequency 353 KHZ



Powered by Heron Airways VA. All Rights Reserved © 2009 [v2.6.2]